Impacts METAR Board
IDs:

KHYI - San Marcos Muni, TX, US

Updated at: 0300 UTC 06 Dec 2019
Potential Impact None Slight Moderate High
Time 05/15Z 05/16Z 05/17Z 05/18Z 05/19Z 05/20Z 05/21Z 05/22Z 05/23Z 06/00Z 06/01Z 06/02Z 06/03Z
Temp55 57 63 66 68 69 73 72 69 66 59 56 57
Dewpt53 55 59 61 61 61 60 61 61 60 56 54 55
Altim30.06 30.08 30.07 30.05 30.01 29.98 29.96 29.95 29.95 29.96 29.97 29.98 30.00
VIS1.5 1.25 7 6 10 10 10 10 10 10 10 6 0.5
CIG3 3 5 9 15 17 -- -- -- -- -- -- 2
CoverOVCOVCOVCOVCOVCBKNSCTFEWCLRCLRCLRCLROVX
FltCatLIFRLIFRIFRIFRMVFRMVFRVFRVFRVFRVFRVFRVFRLIFR
WXBRBR--BR--------------BRFG
WDir17018018021022020021020022024001700
WSpd5 5 8 12 11 12 13 9 6 4 0 3 0
WGst-- -- -- -- -- -- -- -- -- -- -- -- --
Raw hourly METARs
KHYI 051456Z 17005KT 1 1/2SM BR OVC003 13/12 A3006 RMK AO2 SLP176 6//// T01280117 51009 PNO $
KHYI 051556Z 18005KT 1 1/4SM BR OVC003 14/13 A3008 RMK AO2 VIS 1/2V2 SLP183 T01390128 PNO $
KHYI 051705Z 18008KT 7SM OVC005 17/15 A3007 RMK AO2 CIG 004V007 PNO $
KHYI 051756Z 21012KT 6SM BR OVC009 19/16 A3005 RMK AO2 CIG 007V013 SLP171 6//// T01890161 10189 20100 58003 PNO $
KHYI 051856Z 22011KT 10SM OVC015 20/16 A3001 RMK AO2 SLP155 T02000161 PNO $
KHYI 051956Z 20012KT 10SM BKN017 21/16 A2998 RMK AO2 SLP145 T02060161 PNO $
KHYI 052056Z 21013KT 10SM SCT023 23/16 A2996 RMK AO2 SLP141 6//// T02280156 56029 PNO $
KHYI 052156Z 20009KT 10SM FEW024 22/16 A2995 RMK AO2 SLP137 T02220161 PNO $
KHYI 052256Z 22006KT 10SM CLR 21/16 A2995 RMK AO2 SLP137 T02060161 PNO $
KHYI 052356Z 24004KT 10SM CLR 19/16 A2996 RMK AO2 SLP141 6//// T01890156 10228 20189 53001 PNO $
KHYI 060056Z AUTO 00000KT 10SM CLR 15/13 A2997 RMK AO2 SLP144 T01500133 PNO $
KHYI 060156Z AUTO 17003KT 6SM BR CLR 13/12 A2998 RMK AO2 SLP147 T01330122 PNO $
KHYI 060256Z AUTO 00000KT 1/2SM FG VV002 14/13 A3000 RMK AO2 PNO $